Averill, Minnesota
Current Conditions -  °F | °C
As of 8:54 AM on Thursday 23 Oct 2014 (Local Time) from KJKJ Reporting Station
Clear Clear  
Wind Chill: 38°   Ceiling: Unl
Heat Index: 43°   Visibility: 10mi
Dew Point: 43°   Wind: 8mph
Humidity: 100%   Direction: 180°S
Pressure: 29.94"   Gusts: NA
Location:  46.8905°N, 96.5417°W
Report Text: KJKJ 231354Z AUTO 18007KT 10SM CLR 06/06 A2994 RMK AO2
Loading
Personal Weather Stations






























Interactive Weather Map
Tropical Storm Tracking
New forecast layout! Learn more

10-Day Weather Forecast

Advertisements
Track Severe Weather on mobile